ADDS METAR Data INFO
IDs: Format: Raw Decoded Include TAF

Data at: 1006 UTC 12 Dec 2017

KASN 120955Z AUTO 00000KT 10SM CLR 01/01 A2992 RMK AO2 T00110005
KASN 120935Z AUTO 00000KT 10SM CLR 01/01 A2992 RMK AO2 T00130006
KASN 120915Z AUTO 00000KT 10SM CLR 01/01 A2992 RMK AO2 T00140006
KASN 120855Z AUTO 05003KT 10SM CLR 02/01 A2993 RMK AO2 T00170010
KASN 120835Z AUTO 00000KT 10SM CLR 01/01 A2993 RMK AO2 T00100005
KASN 120815Z AUTO 00000KT 10SM CLR 01/01 A2992 RMK AO2 T00100005
KASN 120755Z AUTO 05003KT 10SM CLR 01/01 A2993 RMK AO2 T00120005
KASN 120735Z AUTO 00000KT 10SM CLR 02/01 A2993 RMK AO2 T00170005
KASN 120715Z AUTO 02005KT 10SM CLR 01/00 A2992 RMK AO2 T00050001
KASN 120655Z AUTO 05005KT 10SM CLR 00/00 A2992 RMK AO2 T00030000
KASN 120635Z AUTO 06004KT 10SM CLR 00/00 A2993 RMK AO2 T00040000
KASN 120615Z AUTO 05005KT 10SM CLR 01/00 A2995 RMK AO2 T00050000
KASN 120555Z AUTO 05005KT 10SM CLR 01/00 A2996 RMK AO2 T00100002 10096 20010
KASN 120535Z AUTO 06004KT 10SM CLR 01/01 A2997 RMK AO2 T00130005
KASN 120515Z AUTO 05004KT 10SM CLR 02/01 A2997 RMK AO2 T00180007
KASN 120455Z AUTO 04003KT 10SM CLR 02/01 A2998 RMK AO2 T00180010
KASN 120435Z AUTO 03003KT 10SM CLR 02/01 A2998 RMK AO2 T00180009
KASN 120415Z AUTO 03003KT 10SM CLR 02/01 A2999 RMK AO2 T00220014
KASN 120355Z AUTO 00000KT 10SM CLR 03/02 A2999 RMK AO2 T00300015
KASN 120335Z AUTO 00000KT 10SM CLR 03/02 A2999 RMK AO2 T00300016
KASN 120315Z AUTO 00000KT 10SM CLR 03/01 A3000 RMK AO2 T00260012
KASN 120255Z AUTO 36003KT 10SM CLR 04/02 A3001 RMK AO2 T00400017
KASN 120235Z AUTO 00000KT 10SM CLR 04/02 A3001 RMK AO2 T00410020
KASN 120215Z AUTO 00000KT 10SM CLR 05/02 A3002 RMK AO2 T00520022
KASN 120155Z AUTO 00000KT 10SM CLR 06/02 A3002 RMK AO2 T00600019
KASN 120135Z AUTO 00000KT 10SM CLR 07/02 A3002 RMK AO2 T00680024
KASN 120115Z AUTO 00000KT 10SM CLR 08/03 A3002 RMK AO2 T00800025
KASN 120055Z AUTO 16003KT 10SM CLR 07/02 A3003 RMK AO2 T00690022
KASN 120035Z AUTO 00000KT 10SM CLR 09/03 A3005 RMK AO2 T00910025
KASN 120015Z AUTO 23003KT 10SM CLR 10/02 A3005 RMK AO2 T00950023
KASN 112355Z AUTO 18005KT 10SM CLR 08/02 A3003 RMK AO2 T00830022 10152 20083
KASN 112335Z AUTO 21004KT 10SM CLR 10/02 A3004 RMK AO2 T00950020
KASN 112315Z AUTO 19004KT 10SM CLR 10/02 A3003 RMK AO2 T01020020
KASN 112255Z AUTO 22004KT 10SM CLR 12/02 A3004 RMK AO2 T01240017
KASN 112235Z AUTO 22004KT 10SM CLR 13/02 A3004 RMK AO2 T01300020
KASN 112215Z AUTO 22005KT 10SM CLR 14/02 A3004 RMK AO2 T01380023
KASN 112155Z AUTO 20005KT 10SM CLR 14/03 A3004 RMK AO2 T01420027
KASN 112135Z AUTO 21007KT 10SM CLR 15/03 A3005 RMK AO2 T01450027
KASN 112115Z AUTO 20007KT 10SM CLR 15/03 A3006 RMK AO2 T01460027
KASN 112055Z AUTO 21007KT 10SM CLR 15/02 A3006 RMK AO2 T01470022
KASN 112035Z AUTO 24007KT 10SM CLR 15/02 A3007 RMK AO2 T01490017
KASN 112015Z AUTO 22006KT 10SM CLR 15/02 A3007 RMK AO2 T01510024
KASN 111955Z AUTO 23004KT 10SM CLR 15/02 A3007 RMK AO2 T01470020
KASN 111935Z AUTO 23006KT 10SM CLR 15/03 A3008 RMK AO2 T01460025
KASN 111915Z AUTO 19007KT 10SM CLR 14/02 A3009 RMK AO2 T01400021
KASN 111855Z AUTO 17003KT 10SM CLR 14/02 A3009 RMK AO2 T01370024
KASN 111835Z AUTO 19004KT 10SM CLR 13/02 A3011 RMK AO2 T01300022
KASN 111815Z AUTO 22005KT 10SM CLR 13/02 A3012 RMK AO2 T01250018
KASN 111755Z AUTO 19006KT 10SM CLR 12/02 A3014 RMK AO2 6//// T01200018
KASN 111735Z AUTO 17003KT 10SM CLR 11/02 A3015 RMK AO2 T01070015
KASN 111715Z AUTO 00000KT 10SM CLR 10/02 A3016 RMK AO2 T01030015
KASN 111655Z AUTO 00000KT 10SM CLR 10/01 A3017 RMK AO2 T00960014
KASN 111635Z AUTO 20003KT 10SM CLR 09/02 A3019 RMK AO2 T00890015
KASN 111615Z AUTO 14003KT 10SM CLR 08/01 A3019 RMK AO2 T00770011
KASN 111555Z AUTO 00000KT 10SM CLR 07/01 A3021 RMK AO2 T00690011
KASN 111535Z AUTO 13003KT 10SM CLR 06/01 A3022 RMK AO2 T00550006
KASN 111515Z AUTO 00000KT 10SM CLR 04/00 A3022 RMK AO2 T00410004
KASN 111455Z AUTO 00000KT 10SM CLR 03/00 A3022 RMK AO2 6//// T00280002
KASN 111435Z AUTO 00000KT 10SM CLR 01/00 A3023 RMK AO2 T00121001
KASN 111415Z AUTO 00000KT 10SM CLR 00/M01 A3023 RMK AO2 T00001011
KASN 111355Z AUTO 00000KT 10SM CLR A3023 RMK AO2
KASN 111335Z AUTO 00000KT 10SM CLR M02/M03 A3023 RMK AO2 T10191027
KASN 111315Z AUTO 00000KT 10SM CLR M02/M03 A3023 RMK AO2 T10251031
KASN 111255Z AUTO 00000KT 10SM CLR M03/M04 A3023 RMK AO2 T10291036
KASN 111235Z AUTO 00000KT 10SM CLR M03/M03 A3023 RMK AO2 T10281035
KASN 111215Z AUTO 07003KT 10SM CLR M03/M04 A3022 RMK AO2 T10321038
KASN 111155Z AUTO 00000KT 10SM CLR M02/M03 A3022 RMK AO2 70001 T10251031 11016 21028
KASN 111135Z AUTO 00000KT 10SM CLR M03/M03 A3022 RMK AO2 T10261032
KASN 111115Z AUTO 00000KT 10SM CLR M02/M03 A3022 RMK AO2 T10251031
KASN 111055Z AUTO 00000KT 10SM CLR M02/M03 A3022 RMK AO2 T10231033
KASN 111035Z AUTO 00000KT 10SM CLR M02/M03 A3022 RMK AO2 T10221028
KASN 111015Z AUTO 00000KT 10SM CLR M02/M03 A3022 RMK AO2 T10221030
KASN 110955Z AUTO 00000KT 10SM CLR M02/M03 A3023 RMK AO2 T10221029
KASN 110935Z AUTO 00000KT 10SM CLR M02/M03 A3023 RMK AO2 T10221031
KASN 110915Z AUTO 00000KT 10SM CLR M02/M03 A3023 RMK AO2 T10201027
KASN 110855Z AUTO 00000KT 10SM CLR M02/M03 A3023 RMK AO2 T10241032
KASN 110835Z AUTO 00000KT 10SM CLR M02/M03 A3024 RMK AO2 T10201028
KASN 110815Z AUTO 00000KT 10SM CLR M02/M03 A3024 RMK AO2 T10211030
KASN 110755Z AUTO 00000KT 10SM CLR M02/M03 A3024 RMK AO2 T10251032
KASN 110735Z AUTO 05003KT 10SM CLR M02/M03 A3025 RMK AO2 T10251032
KASN 110715Z AUTO 05003KT 10SM CLR M02/M03 A3025 RMK AO2 T10211028
KASN 110655Z AUTO 00000KT 10SM CLR M02/M03 A3026 RMK AO2 T10201026
KASN 110635Z AUTO 06003KT 10SM CLR M02/M03 A3027 RMK AO2 T10201026
KASN 110615Z AUTO 00000KT 10SM CLR M02/M02 A3027 RMK AO2 T10161023
KASN 110555Z AUTO 00000KT 10SM CLR M02/M03 A3028 RMK AO2 T10181026 10035 21021 400791057
KASN 110535Z AUTO 00000KT 10SM CLR M02/M03 A3028 RMK AO2 T10201028
KASN 110515Z AUTO 06003KT 10SM CLR M02/M03 A3029 RMK AO2 T10191026
KASN 110455Z AUTO 00000KT 10SM CLR M01/M02 A3029 RMK AO2 T10131020
KASN 110435Z AUTO 00000KT 10SM CLR M01/M02 A3029 RMK AO2 T10101025
KASN 110415Z AUTO 00000KT 10SM CLR 00/M02 A3030 RMK AO2 T10051020
KASN 110355Z AUTO 00000KT 10SM CLR M01/M02 A3029 RMK AO2 T10091020
KASN 110335Z AUTO 00000KT 10SM CLR M01/M02 A3029 RMK AO2 T10081021
KASN 110315Z AUTO 00000KT 10SM CLR M01/M02 A3028 RMK AO2 T10111024
KASN 110255Z AUTO 00000KT 10SM CLR M01/M02 A3027 RMK AO2 T10061017
KASN 110235Z AUTO 00000KT 10SM CLR 00/M02 A3027 RMK AO2 T10011017
KASN 110215Z AUTO 00000KT 10SM CLR M01/M02 A3026 RMK AO2 T10061021
KASN 110155Z AUTO 00000KT 10SM CLR 00/M01 A3026 RMK AO2 T00011014
KASN 110135Z AUTO 00000KT 10SM CLR 00/M01 A3026 RMK AO2 T00021015
KASN 110115Z AUTO 00000KT 10SM CLR 01/M01 A3027 RMK AO2 T00071014
KASN 110055Z AUTO 00000KT 10SM CLR 01/M02 A3026 RMK AO2 T00101017
KASN 110035Z AUTO 00000KT 10SM CLR 02/M01 A3026 RMK AO2 T00211007
KASN 110015Z AUTO 00000KT 10SM CLR 04/M02 A3026 RMK AO2 T00351017
KASN 102355Z AUTO 19004KT 10SM CLR 04/M01 A3026 RMK AO2 T00351015 10079 20026
KASN 102335Z AUTO 19004KT 10SM CLR 04/M01 A3026 RMK AO2 T00351015
KASN 102315Z AUTO 19004KT 10SM CLR 04/M01 A3026 RMK AO2 T00411015
KASN 102255Z AUTO 20003KT 10SM CLR 05/M01 A3026 RMK AO2 T00511015
KASN 102235Z AUTO 22005KT 10SM CLR 06/M02 A3026 RMK AO2 T00621019
KASN 102215Z AUTO 21007KT 10SM CLR 07/M02 A3026 RMK AO2 T00661017